Time;durP1;ratioP1;P1;durP2;ratioP2;P2;SDS_P1;SDS_P2;PMS_P1;PMS_P2;Temp;Humidity;BMP_temperature;BMP_pressure;BME280_temperature;BME280_humidity;BME280_pressure;Samples;Min_cycle;Max_cycle;Signal;HPM_P1;HPM_P2
2023/05/23 00:00:04;;;;;;;;;20.25;17.25;;;;;19.29;60.71;101427.13;2076682;28;46451;-63
2023/05/23 00:01:08;;;;;;;;;24.20;24.20;;;;;19.28;60.30;101425.38;2077068;28;45837;-64
2023/05/23 00:02:08;;;;;;;;;27.40;24.80;;;;;19.27;60.83;101429.03;2080030;28;45999;-63
2023/05/23 00:03:09;;;;;;;;;21.50;20.25;;;;;19.26;60.48;101432.66;2077771;28;45952;-63
2023/05/23 00:04:15;;;;;;;;;23.20;20.80;;;;;19.24;60.64;101427.34;2086874;28;45698;-62
2023/05/23 00:05:16;;;;;;;;;22.60;20.60;;;;;19.23;60.11;101435.50;2082848;28;46069;-62
2023/05/23 00:06:22;;;;;;;;;21.00;20.60;;;;;19.22;60.23;101429.25;2071565;28;45969;-62
2023/05/23 00:07:22;;;;;;;;;25.60;23.20;;;;;19.20;59.95;101436.53;2073725;28;46066;-61
2023/05/23 00:08:22;;;;;;;;;22.00;20.50;;;;;19.20;60.39;101436.53;2073680;28;45903;-61
2023/05/23 00:09:22;;;;;;;;;21.25;19.75;;;;;19.20;60.31;101438.34;2074006;28;45588;-62
2023/05/23 00:10:23;;;;;;;;;22.25;20.00;;;;;19.19;60.55;101429.41;2074296;28;45046;-62
2023/05/23 00:11:25;;;;;;;;;23.00;21.25;;;;;19.18;60.11;101426.75;2073435;28;46283;-63
2023/05/23 00:12:26;;;;;;;;;21.20;21.20;;;;;19.17;60.30;101427.69;2073406;28;46461;-63
2023/05/23 00:13:26;;;;;;;;;23.50;21.50;;;;;19.16;60.29;101424.13;2073764;28;45535;-62
2023/05/23 00:14:30;;;;;;;;;23.50;22.00;;;;;19.17;60.20;101419.63;2072957;28;45800;-62
2023/05/23 00:15:32;;;;;;;;;24.20;21.00;;;;;19.16;59.90;101420.56;2080657;28;46813;-63
2023/05/23 00:16:32;;;;;;;;;23.60;21.80;;;;;19.15;60.35;101421.50;2080408;28;45751;-63
2023/05/23 00:17:35;;;;;;;;;25.75;25.00;;;;;19.14;60.35;101422.47;2072854;28;45102;-60
2023/05/23 00:18:36;;;;;;;;;21.20;21.20;;;;;19.12;60.50;101425.22;2071914;28;47028;-63
2023/05/23 00:19:37;;;;;;;;;21.80;20.60;;;;;19.09;60.40;101420.88;2073042;28;46731;-63
2023/05/23 00:20:41;;;;;;;;;24.75;21.75;;;;;19.09;60.01;101428.94;2073053;28;45832;-62
2023/05/23 00:21:47;;;;;;;;;21.60;20.60;;;;;19.09;60.16;101417.31;2072673;28;46116;-63
2023/05/23 00:22:48;;;;;;;;;23.40;21.80;;;;;19.08;60.08;101412.88;2072441;28;46166;-62
2023/05/23 00:23:49;;;;;;;;;20.75;19.00;;;;;19.08;60.16;101419.13;2073326;28;47289;-60
2023/05/23 00:24:49;;;;;;;;;24.40;20.80;;;;;19.07;60.07;101414.69;2072809;28;45279;-60
2023/05/23 00:25:53;;;;;;;;;22.75;20.25;;;;;19.07;60.33;101421.88;2072954;28;45664;-61
2023/05/23 00:26:53;;;;;;;;;22.20;21.40;;;;;19.06;60.30;101426.41;2072880;28;46668;-62
2023/05/23 00:27:53;;;;;;;;;23.00;23.00;;;;;19.06;60.11;101423.72;2072904;28;45540;-65
2023/05/23 00:28:55;;;;;;;;;16.75;16.00;;;;;19.07;60.31;101421.88;2073128;28;46326;-64
2023/05/23 00:29:55;;;;;;;;;21.60;19.20;;;;;19.07;60.41;101421.88;2072952;28;45788;-62
2023/05/23 00:30:55;;;;;;;;;22.00;21.00;;;;;19.06;60.24;101417.44;2055572;28;45525;-61
2023/05/23 00:31:56;;;;;;;;;18.75;18.50;;;;;19.05;60.14;101426.44;2055596;28;45518;-62
2023/05/23 00:32:57;;;;;;;;;22.25;19.75;;;;;19.03;60.30;101425.63;2055675;28;46973;-63
2023/05/23 00:33:58;;;;;;;;;22.40;21.60;;;;;19.02;60.07;101430.16;2055805;28;46768;-63
2023/05/23 00:34:58;;;;;;;;;16.50;15.25;;;;;19.01;60.25;101422.16;2057597;28;45716;-63
2023/05/23 00:35:59;;;;;;;;;22.50;22.25;;;;;18.99;60.43;101424.91;2063687;28;45744;-61
2023/05/23 00:37:01;;;;;;;;;19.25;18.00;;;;;18.99;60.40;101421.34;2063903;28;46435;-63
2023/05/23 00:38:02;;;;;;;;;21.60;19.20;;;;;18.97;60.14;101431.31;2060714;28;46561;-63
2023/05/23 00:39:03;;;;;;;;;18.60;17.00;;;;;18.96;60.40;101421.50;2055870;28;47821;-61
2023/05/23 00:40:04;;;;;;;;;20.00;19.60;;;;;18.93;60.37;101432.38;2055780;28;46020;-64
2023/05/23 00:41:05;;;;;;;;;20.40;20.20;;;;;18.93;60.27;101421.63;2055838;28;46925;-64
2023/05/23 00:42:06;;;;;;;;;21.25;18.25;;;;;18.92;60.31;101423.44;2063400;28;45725;-62
2023/05/23 00:43:09;;;;;;;;;21.25;20.25;;;;;18.92;60.27;101433.31;2063833;28;46301;-63
2023/05/23 00:44:11;;;;;;;;;22.00;19.60;;;;;18.92;60.34;101430.63;2063836;28;46132;-63
2023/05/23 00:45:11;;;;;;;;;19.60;18.40;;;;;18.94;60.37;101426.94;2063810;28;46370;-63
2023/05/23 00:46:12;;;;;;;;;25.00;23.00;;;;;18.96;60.47;101429.56;2063694;28;46866;-63
2023/05/23 00:47:12;;;;;;;;;17.60;17.20;;;;;18.96;60.74;101422.38;2064048;28;45726;-63
2023/05/23 00:48:13;;;;;;;;;21.25;21.25;;;;;18.95;60.18;101425.13;2062982;28;45680;-64
2023/05/23 00:49:14;;;;;;;;;23.00;21.80;;;;;18.94;60.18;101435.03;2063752;28;45499;-63
2023/05/23 00:50:15;;;;;;;;;23.75;21.75;;;;;18.94;60.23;101435.03;2063690;28;46077;-64
2023/05/23 00:51:15;;;;;;;;;19.00;19.00;;;;;18.93;60.58;101432.38;2063847;28;45733;-61
2023/05/23 00:52:16;;;;;;;;;23.00;21.00;;;;;18.92;60.35;101428.81;2060454;28;44999;-64
2023/05/23 00:53:16;;;;;;;;;26.40;24.80;;;;;18.92;60.14;101433.31;2055673;28;46740;-62
2023/05/23 00:54:22;;;;;;;;;18.50;17.75;;;;;18.90;60.35;101428.00;2055694;28;47076;-61
2023/05/23 00:55:24;;;;;;;;;19.60;17.80;;;;;18.89;59.90;101425.41;2050148;28;46349;-63
2023/05/23 00:56:25;;;;;;;;;19.00;19.00;;;;;18.85;60.04;101421.09;2055687;28;46437;-62
2023/05/23 00:57:25;;;;;;;;;20.60;18.80;;;;;18.81;60.27;101421.25;2055407;28;46593;-60
2023/05/23 00:58:26;;;;;;;;;22.75;20.25;;;;;18.80;60.35;101419.50;2048064;28;46004;-61
2023/05/23 00:59:27;;;;;;;;;18.25;17.00;;;;;18.79;60.47;101420.41;2047751;28;46555;-63
2023/05/23 01:00:29;;;;;;;;;19.40;18.60;;;;;18.79;60.41;101415.03;2055542;28;46283;-62
2023/05/23 01:01:29;;;;;;;;;21.40;19.80;;;;;18.79;60.25;101419.53;2047341;28;46012;-63
2023/05/23 01:02:35;;;;;;;;;16.50;16.50;;;;;18.77;60.40;101416.94;2054401;28;45637;-61
2023/05/23 01:03:36;;;;;;;;;19.00;19.00;;;;;18.78;60.24;101421.38;2078740;28;45796;-62
2023/05/23 01:04:36;;;;;;;;;20.80;19.00;;;;;18.78;60.28;101410.59;2071778;28;45186;-62
2023/05/23 01:05:38;;;;;;;;;20.00;18.75;;;;;18.77;59.99;101410.69;2070200;28;45234;-63
2023/05/23 01:06:39;;;;;;;;;17.20;17.20;;;;;18.75;60.00;101410.75;2074655;28;46678;-64
2023/05/23 01:07:40;;;;;;;;;20.75;18.00;;;;;18.74;60.12;101411.69;2073153;28;45045;-64
2023/05/23 01:08:42;;;;;;;;;16.20;15.40;;;;;18.72;60.16;101412.72;2074979;28;45897;-64
2023/05/23 01:09:42;;;;;;;;;21.60;19.00;;;;;18.71;60.23;101416.34;2074391;28;46098;-61
2023/05/23 01:10:42;;;;;;;;;22.75;18.00;;;;;18.69;60.01;101407.47;2073565;28;45732;-62
2023/05/23 01:12:01;;;;;;;;;20.25;17.25;;;;;18.69;60.04;101410.16;2072945;28;46020;-62
2023/05/23 01:13:25;;;;;;;;;18.80;18.00;;;;;18.68;60.07;101403.91;2074871;28;46055;-64
2023/05/23 01:14:41;;;;;;;;;18.20;17.20;;;;;18.67;60.06;101403.97;2072751;28;45750;-61
2023/05/23 01:15:57;;;;;;;;;24.00;21.20;;;;;18.65;59.97;101416.59;2072877;28;45836;-63
2023/05/23 01:17:06;;;;;;;;;13.00;13.00;;;;;18.64;60.04;101409.47;2070523;28;45249;-63
2023/05/23 01:18:16;;;;;;;;;21.00;18.40;;;;;18.65;60.12;101419.28;2074928;28;46463;-62
2023/05/23 01:19:47;;;;;;;;;17.40;17.40;;;;;18.66;60.11;101413.84;2074435;28;45411;-62
2023/05/23 01:20:58;;;;;;;;;18.60;18.40;;;;;18.65;60.11;101404.03;2073256;28;45908;-63
2023/05/23 01:22:05;;;;;;;;;20.40;20.40;;;;;18.66;60.42;101410.28;2072692;28;45823;-64
2023/05/23 01:23:19;;;;;;;;;25.00;20.60;;;;;18.64;60.06;101415.72;2074809;28;46048;-62
2023/05/23 01:24:35;;;;;;;;;21.60;21.00;;;;;18.64;60.53;101414.84;2075582;28;46048;-62
2023/05/23 01:25:38;;;;;;;;;21.80;19.60;;;;;18.62;60.31;101416.72;2073461;28;46770;-62
2023/05/23 01:27:06;;;;;;;;;17.60;17.20;;;;;18.63;60.43;101416.63;2073431;28;46519;-62
2023/05/23 01:28:11;;;;;;;;;20.20;19.20;;;;;18.64;60.47;101422.91;2074538;28;46436;-61
2023/05/23 01:29:31;;;;;;;;;22.00;19.80;;;;;18.63;60.48;101415.75;2074870;28;45753;-62
2023/05/23 01:30:34;;;;;;;;;21.40;20.40;;;;;18.62;60.37;101419.41;2072652;28;47107;-62
2023/05/23 01:31:48;;;;;;;;;19.20;17.40;;;;;18.60;60.35;101419.47;2074038;28;45701;-62
2023/05/23 01:32:53;;;;;;;;;20.40;18.40;;;;;18.58;60.44;101418.66;2075096;28;45208;-63
2023/05/23 01:33:55;;;;;;;;;20.20;19.20;;;;;18.59;60.80;101415.03;2072660;28;45959;-62
2023/05/23 01:34:55;;;;;;;;;21.40;20.00;;;;;18.58;60.48;101426.72;2073105;28;46093;-62
2023/05/23 01:35:59;;;;;;;;;19.20;19.20;;;;;18.57;60.31;101424.13;2072059;28;47383;-63
2023/05/23 01:36:59;;;;;;;;;19.20;18.40;;;;;18.56;60.79;101417.88;2073589;28;46584;-63
2023/05/23 01:37:59;;;;;;;;;20.00;20.00;;;;;18.56;60.50;101430.44;2080743;28;46178;-62
2023/05/23 01:39:00;;;;;;;;;18.75;18.00;;;;;18.54;60.41;101427.78;2072646;28;45873;-63
2023/05/23 01:40:01;;;;;;;;;24.40;21.60;;;;;18.50;60.40;101424.38;2072037;28;45747;-64
2023/05/23 01:41:01;;;;;;;;;18.75;18.50;;;;;18.50;60.57;101426.19;2079612;28;46102;-63
2023/05/23 01:42:02;;;;;;;;;22.00;20.50;;;;;18.49;60.27;101425.31;2076592;28;45638;-62
2023/05/23 01:43:03;;;;;;;;;22.50;20.75;;;;;18.48;60.57;101420.88;2079878;28;45923;-63
2023/05/23 01:44:04;;;;;;;;;19.25;19.25;;;;;18.47;60.47;101421.81;2078228;28;46482;-61
2023/05/23 01:45:05;;;;;;;;;18.40;18.40;;;;;18.47;60.63;101426.31;2076531;28;46000;-62
2023/05/23 01:46:07;;;;;;;;;19.40;18.80;;;;;18.46;60.57;101424.56;2080321;28;45709;-62
2023/05/23 01:47:09;;;;;;;;;21.40;20.60;;;;;18.46;60.39;101424.56;2077196;28;46776;-66
2023/05/23 01:48:12;;;;;;;;;21.00;19.20;;;;;18.45;60.99;101426.38;2074989;28;47558;-63
2023/05/23 01:49:15;;;;;;;;;20.60;19.60;;;;;18.45;60.12;101425.50;2063619;28;46292;-64
2023/05/23 01:50:16;;;;;;;;;20.20;19.40;;;;;18.45;60.45;101434.44;2074516;28;45631;-62
2023/05/23 01:51:16;;;;;;;;;21.60;20.20;;;;;18.45;60.45;101431.75;2077619;28;46445;-62
2023/05/23 01:52:18;;;;;;;;;20.00;17.75;;;;;18.44;60.41;101438.09;2068912;28;46289;-62
2023/05/23 01:53:21;;;;;;;;;16.40;16.20;;;;;18.43;60.66;101441.72;2071671;28;48326;-62
2023/05/23 01:54:22;;;;;;;;;23.20;20.20;;;;;18.41;60.38;101438.19;2078852;28;46397;-61
2023/05/23 01:55:25;;;;;;;;;22.20;19.60;;;;;18.41;60.46;101438.19;2078600;28;48321;-63
2023/05/23 01:56:27;;;;;;;;;20.80;19.80;;;;;18.40;60.49;101433.75;2077146;28;46497;-63
2023/05/23 01:57:29;;;;;;;;;22.80;18.80;;;;;18.40;60.38;101438.25;2071448;28;45589;-61
2023/05/23 01:58:30;;;;;;;;;21.80;21.80;;;;;18.39;60.67;101439.19;2072373;28;45508;-61
2023/05/23 01:59:30;;;;;;;;;23.50;20.50;;;;;18.38;60.55;101432.06;2072547;28;46072;-63
2023/05/23 02:00:30;;;;;;;;;23.00;23.00;;;;;18.37;60.63;101436.59;2080873;28;45601;-61
2023/05/23 02:01:32;;;;;;;;;19.25;17.25;;;;;18.36;60.46;101432.16;2076776;28;46807;-62
2023/05/23 02:02:33;;;;;;;;;22.20;19.60;;;;;18.35;60.56;101434.91;2078482;28;46343;-63
2023/05/23 02:03:34;;;;;;;;;19.75;18.75;;;;;18.34;60.66;101435.84;2079664;28;45851;-64
2023/05/23 02:04:34;;;;;;;;;21.80;20.20;;;;;18.34;60.79;101434.03;2076782;28;45560;-61
2023/05/23 02:05:35;;;;;;;;;21.75;17.00;;;;;18.34;60.62;101434.03;2072208;28;46401;-63
2023/05/23 02:06:35;;;;;;;;;25.25;23.00;;;;;18.36;60.70;101439.34;2075438;28;45493;-62
2023/05/23 02:07:36;;;;;;;;;22.00;19.50;;;;;18.36;60.70;101436.66;2066887;28;46411;-63
2023/05/23 02:08:37;;;;;;;;;25.20;23.80;;;;;18.33;60.93;101434.97;2075159;28;46476;-62
2023/05/23 02:09:37;;;;;;;;;23.60;20.80;;;;;18.33;60.69;101434.97;2074400;28;45160;-63
2023/05/23 02:10:38;;;;;;;;;23.50;21.75;;;;;18.33;60.93;101428.72;2073143;28;46301;-64
2023/05/23 02:11:38;;;;;;;;;24.00;23.50;;;;;18.33;61.03;101434.09;2075458;28;46271;-63
2023/05/23 02:12:38;;;;;;;;;25.25;24.00;;;;;18.32;61.03;101427.84;2071968;28;45705;-63
2023/05/23 02:13:39;;;;;;;;;25.50;21.50;;;;;18.32;61.10;101426.97;2074748;28;46831;-64
2023/05/23 02:14:41;;;;;;;;;20.25;19.50;;;;;18.32;60.97;101432.34;2072123;28;45065;-60
2023/05/23 02:15:41;;;;;;;;;24.20;22.00;;;;;18.33;60.82;101434.09;2071794;28;46688;-62
2023/05/23 02:16:41;;;;;;;;;21.50;21.25;;;;;18.32;61.06;101435.03;2074320;28;45409;-63
2023/05/23 02:17:42;;;;;;;;;22.25;21.25;;;;;18.30;61.08;101436.94;2073326;28;45211;-62
2023/05/23 02:18:44;;;;;;;;;22.00;20.25;;;;;18.29;61.12;101441.38;2073921;28;46724;-64
2023/05/23 02:19:45;;;;;;;;;22.40;20.80;;;;;18.27;60.99;101437.03;2074522;28;47230;-63
2023/05/23 02:20:45;;;;;;;;;24.25;21.75;;;;;18.26;61.24;101433.47;2072573;28;46144;-63
2023/05/23 02:21:46;;;;;;;;;23.00;21.25;;;;;18.27;61.09;101437.91;2074310;28;46211;-62
2023/05/23 02:22:46;;;;;;;;;21.00;19.25;;;;;18.27;61.32;101437.91;2075187;28;45736;-62
2023/05/23 02:23:46;;;;;;;;;23.25;22.50;;;;;18.27;61.28;101431.66;2072197;28;45858;-60
2023/05/23 02:24:48;;;;;;;;;21.50;19.00;;;;;18.28;61.36;101436.09;2075035;28;45953;-62
2023/05/23 02:25:48;;;;;;;;;23.40;22.40;;;;;18.29;61.49;101437.84;2065452;28;45762;-64
2023/05/23 02:26:50;;;;;;;;;26.25;24.75;;;;;18.29;61.24;101437.84;2071632;28;46761;-62
2023/05/23 02:27:50;;;;;;;;;23.40;23.20;;;;;18.30;61.25;101436.94;2074788;28;45497;-63
2023/05/23 02:28:50;;;;;;;;;23.75;23.00;;;;;18.31;61.40;101435.97;2072042;28;45474;-63
2023/05/23 02:29:51;;;;;;;;;23.50;19.75;;;;;18.30;61.34;101436.94;2071997;28;46277;-62
2023/05/23 02:30:51;;;;;;;;;22.50;22.00;;;;;18.29;61.28;101430.66;2074186;28;46147;-62
2023/05/23 02:31:51;;;;;;;;;23.50;21.50;;;;;18.29;61.29;101432.47;2072188;28;46385;-62
2023/05/23 02:32:52;;;;;;;;;24.50;24.50;;;;;18.27;61.44;101437.91;2071775;28;46301;-63
2023/05/23 02:33:52;;;;;;;;;24.25;24.00;;;;;18.26;61.47;101435.28;2073279;28;44968;-64
2023/05/23 02:34:52;;;;;;;;;22.25;22.00;;;;;18.26;61.63;101448.72;2072047;28;47330;-62
2023/05/23 02:35:54;;;;;;;;;24.00;23.50;;;;;18.25;61.47;101450.53;2072697;28;45789;-61
2023/05/23 02:36:54;;;;;;;;;24.80;23.20;;;;;18.26;61.25;101451.41;2073054;28;45837;-63
2023/05/23 02:37:54;;;;;;;;;25.00;23.25;;;;;18.25;61.48;101453.22;2073804;28;46929;-63
2023/05/23 02:38:55;;;;;;;;;20.25;19.00;;;;;18.23;61.32;101450.59;2074006;28;45568;-62
2023/05/23 02:39:56;;;;;;;;;26.00;22.75;;;;;18.22;61.61;101446.16;2072422;28;46123;-62
2023/05/23 02:40:56;;;;;;;;;21.50;20.50;;;;;18.20;61.70;101448.03;2073560;28;45637;-63
2023/05/23 02:41:56;;;;;;;;;26.00;24.50;;;;;18.19;61.84;101442.75;2073022;28;47247;-63
2023/05/23 02:42:57;;;;;;;;;24.25;21.75;;;;;18.20;61.65;101444.50;2072220;28;46506;-63
2023/05/23 02:43:57;;;;;;;;;26.25;24.50;;;;;18.19;61.57;101442.75;2072635;28;45542;-62
2023/05/23 02:44:58;;;;;;;;;25.00;21.50;;;;;18.18;61.33;101443.69;2071370;28;46786;-63
2023/05/23 02:45:58;;;;;;;;;21.75;19.50;;;;;18.17;61.54;101450.88;2073245;28;45547;-62
2023/05/23 02:46:59;;;;;;;;;25.75;23.25;;;;;18.16;61.39;101445.53;2072697;28;45732;-62
2023/05/23 02:47:59;;;;;;;;;20.75;20.25;;;;;18.15;61.70;101441.97;2072241;28;46064;-62
2023/05/23 02:48:59;;;;;;;;;23.25;21.25;;;;;18.16;61.56;101443.72;2072264;28;44960;-62
2023/05/23 02:50:00;;;;;;;;;24.75;20.25;;;;;18.17;61.74;101436.56;2072956;28;45685;-62
2023/05/23 02:51:00;;;;;;;;;21.75;17.75;;;;;18.14;61.56;101434.84;2071754;28;45577;-63
2023/05/23 02:52:00;;;;;;;;;29.50;27.25;;;;;18.14;61.58;101428.59;2072854;28;45872;-61
2023/05/23 02:53:01;;;;;;;;;21.25;21.25;;;;;18.14;61.42;101436.66;2071796;28;46614;-63
2023/05/23 02:54:01;;;;;;;;;22.50;20.75;;;;;18.13;61.58;101432.25;2068114;28;45833;-63
2023/05/23 02:55:02;;;;;;;;;20.00;19.50;;;;;18.13;61.71;101441.16;2065978;28;47934;-62
2023/05/23 02:56:02;;;;;;;;;24.75;24.25;;;;;18.14;61.64;101442.03;2071621;28;45612;-63
2023/05/23 02:57:03;;;;;;;;;22.50;21.00;;;;;18.14;61.60;101442.03;2079551;28;45393;-63
2023/05/23 02:58:04;;;;;;;;;22.50;22.50;;;;;18.15;61.72;101451.84;2079975;28;46049;-63
2023/05/23 02:59:05;;;;;;;;;25.20;22.20;;;;;18.14;61.38;101452.78;2070157;28;46296;-64
2023/05/23 03:00:06;;;;;;;;;24.00;19.25;;;;;18.13;61.25;101448.34;2085009;28;45835;-63
2023/05/23 03:01:07;;;;;;;;;21.75;21.00;;;;;18.12;61.47;101446.59;2079625;28;44899;-63
2023/05/23 03:02:07;;;;;;;;;20.25;18.75;;;;;18.10;61.53;101452.03;2070793;28;45459;-62
2023/05/23 03:03:07;;;;;;;;;24.00;22.75;;;;;18.08;61.50;101448.56;2073625;28;45582;-62
2023/05/23 03:04:08;;;;;;;;;24.25;23.75;;;;;18.08;61.35;101448.56;2072300;28;45517;-62
2023/05/23 03:05:08;;;;;;;;;22.25;20.25;;;;;18.08;61.40;101445.00;2071846;28;45730;-61
2023/05/23 03:06:13;;;;;;;;;26.50;23.25;;;;;18.07;61.54;101452.19;2072114;28;44957;-61
2023/05/23 03:07:13;;;;;;;;;22.20;21.60;;;;;18.06;61.30;101449.56;2071961;28;46373;-62
2023/05/23 03:08:14;;;;;;;;;22.00;19.50;;;;;18.05;61.58;101447.81;2072811;28;45201;-63
2023/05/23 03:09:17;;;;;;;;;21.00;21.00;;;;;18.04;61.88;101455.00;2071139;28;46858;-62
2023/05/23 03:10:17;;;;;;;;;25.80;22.80;;;;;18.04;61.75;101446.94;2073163;28;46283;-64
2023/05/23 03:11:18;;;;;;;;;21.25;19.00;;;;;18.05;61.58;101447.81;2070972;28;46236;-63
2023/05/23 03:12:18;;;;;;;;;25.00;24.00;;;;;18.02;61.79;101454.16;2063746;28;45435;-63
2023/05/23 03:13:18;;;;;;;;;21.25;20.50;;;;;18.03;61.53;101449.66;2071040;28;45561;-62
2023/05/23 03:14:19;;;;;;;;;24.50;21.00;;;;;18.03;61.61;101455.03;2072835;28;45478;-63
2023/05/23 03:15:19;;;;;;;;;24.75;23.25;;;;;18.02;61.33;101447.91;2072770;28;46082;-61
2023/05/23 03:16:21;;;;;;;;;26.75;23.75;;;;;18.01;61.63;101449.72;2073263;28;45597;-62
2023/05/23 03:17:24;;;;;;;;;19.60;18.40;;;;;17.99;61.79;101459.66;2072090;28;45793;-63
2023/05/23 03:18:24;;;;;;;;;23.20;23.20;;;;;17.97;61.55;101455.31;2073476;28;45837;-62
2023/05/23 03:19:25;;;;;;;;;23.50;22.25;;;;;17.94;61.38;101454.50;2073272;28;46630;-61
2023/05/23 03:20:25;;;;;;;;;19.50;17.50;;;;;17.92;61.90;101455.50;2079471;28;45521;-63
2023/05/23 03:21:25;;;;;;;;;21.50;20.50;;;;;17.92;61.77;101455.50;2079817;28;46376;-62
2023/05/23 03:22:26;;;;;;;;;25.00;22.50;;;;;17.91;61.51;101451.03;2071403;28;46418;-61
2023/05/23 03:23:26;;;;;;;;;26.00;25.00;;;;;17.89;61.81;101456.47;2072023;28;45055;-63
2023/05/23 03:24:27;;;;;;;;;22.25;20.50;;;;;17.88;61.77;101457.41;2073255;28;45779;-62
2023/05/23 03:25:27;;;;;;;;;28.00;24.75;;;;;17.88;61.60;101451.16;2071961;28;46561;-63
2023/05/23 03:26:27;;;;;;;;;21.75;20.50;;;;;17.87;61.71;101455.66;2071094;28;46627;-63
2023/05/23 03:27:27;;;;;;;;;21.50;19.75;;;;;17.86;61.38;101448.53;2072915;28;45477;-64
2023/05/23 03:28:30;;;;;;;;;23.00;22.75;;;;;17.84;61.54;101453.09;2070852;28;46231;-61
2023/05/23 03:29:31;;;;;;;;;22.60;21.00;;;;;17.84;61.62;101458.47;2081139;28;46266;-63
2023/05/23 03:30:31;;;;;;;;;20.80;20.80;;;;;17.83;61.40;101458.53;2073063;28;46599;-63
2023/05/23 03:31:32;;;;;;;;;25.50;24.00;;;;;17.81;61.52;101457.72;2072377;28;45561;-64
2023/05/23 03:32:32;;;;;;;;;24.00;21.75;;;;;17.79;61.79;101465.84;2071095;28;45522;-63
2023/05/23 03:33:32;;;;;;;;;20.75;20.75;;;;;17.78;61.74;101460.53;2071328;28;45834;-63
2023/05/23 03:34:35;;;;;;;;;25.25;23.00;;;;;17.78;61.74;101465.88;2078588;28;46450;-62
2023/05/23 03:35:35;;;;;;;;;23.00;22.40;;;;;17.77;61.91;101467.69;2082534;28;45602;-63
2023/05/23 03:36:38;;;;;;;;;26.50;23.25;;;;;17.76;61.93;101460.59;2078531;28;46244;-64
2023/05/23 03:37:39;;;;;;;;;27.00;23.80;;;;;17.76;61.92;101471.31;2077268;28;45788;-60
2023/05/23 03:38:39;;;;;;;;;30.20;25.80;;;;;17.77;61.92;101472.19;2071390;28;46929;-63
2023/05/23 03:39:40;;;;;;;;;26.25;24.00;;;;;17.76;62.01;101468.63;2071715;28;46899;-62
2023/05/23 03:40:40;;;;;;;;;25.00;24.00;;;;;17.75;62.21;101468.69;2076631;28;45558;-62
2023/05/23 03:41:40;;;;;;;;;24.00;23.00;;;;;17.73;62.12;101474.13;2075982;28;46888;-63
2023/05/23 03:42:40;;;;;;;;;21.75;19.75;;;;;17.73;61.97;101476.81;2064586;28;45583;-64
2023/05/23 03:43:41;;;;;;;;;25.25;22.50;;;;;17.74;62.33;101477.69;2074309;28;46515;-63
2023/05/23 03:44:41;;;;;;;;;24.25;23.00;;;;;17.73;62.03;101486.69;2077363;28;45629;-62
2023/05/23 03:45:41;;;;;;;;;26.00;26.00;;;;;17.72;62.03;101482.25;2078417;28;45695;-63
2023/05/23 03:46:42;;;;;;;;;26.25;25.25;;;;;17.70;62.12;101470.72;2075962;28;46271;-61
2023/05/23 03:47:42;;;;;;;;;28.75;27.00;;;;;17.68;62.17;101468.06;2079797;28;44978;-62
2023/05/23 03:48:43;;;;;;;;;20.75;20.50;;;;;17.66;62.31;101477.97;2072236;28;46127;-64
2023/05/23 03:49:44;;;;;;;;;24.25;24.00;;;;;17.63;62.31;101472.72;2072309;28;44976;-62
2023/05/23 03:50:44;;;;;;;;;29.40;26.20;;;;;17.61;62.46;101475.44;2079742;28;46511;-62
2023/05/23 03:51:44;;;;;;;;;23.50;20.75;;;;;17.60;62.53;101484.44;2072674;28;45707;-64
2023/05/23 03:52:45;;;;;;;;;27.75;26.50;;;;;17.56;62.42;101472.09;2065778;28;45994;-63
2023/05/23 03:53:45;;;;;;;;;25.75;25.75;;;;;17.54;62.53;101473.97;2071894;28;46181;-61
2023/05/23 03:54:45;;;;;;;;;24.00;22.00;;;;;17.50;62.51;101475.00;2073707;28;46823;-64
2023/05/23 03:55:45;;;;;;;;;25.50;23.75;;;;;17.48;62.54;101474.19;2080219;28;45731;-62
2023/05/23 03:56:46;;;;;;;;;27.75;24.50;;;;;17.46;62.43;101480.53;2076711;28;45553;-63
2023/05/23 03:57:53;;;;;;;;;26.75;25.00;;;;;17.44;62.61;101479.72;2074399;28;48101;-62
2023/05/23 03:58:53;;;;;;;;;26.60;24.60;;;;;17.45;62.38;101481.47;2070531;28;46416;-63
2023/05/23 03:59:53;;;;;;;;;25.50;23.25;;;;;17.44;62.42;101483.28;2075800;28;45097;-64
2023/05/23 04:00:55;;;;;;;;;29.00;24.75;;;;;17.46;62.57;101485.91;2077565;28;45598;-62
2023/05/23 04:01:57;;;;;;;;;25.25;25.25;;;;;17.46;62.48;101480.53;2078802;28;46860;-61
2023/05/23 04:02:57;;;;;;;;;30.00;27.00;;;;;17.47;62.58;101482.28;2066802;28;45967;-62
2023/05/23 04:03:59;;;;;;;;;21.75;20.75;;;;;17.48;62.57;101479.53;2068911;28;46205;-64
2023/05/23 04:04:59;;;;;;;;;25.40;22.40;;;;;17.49;62.76;101491.16;2074147;28;45779;-64
2023/05/23 04:06:00;;;;;;;;;25.25;24.25;;;;;17.50;62.48;101484.84;2071621;28;46037;-63
2023/05/23 04:07:01;;;;;;;;;27.00;25.75;;;;;17.50;62.41;101485.72;2079238;28;45492;-63
2023/05/23 04:08:01;;;;;;;;;28.80;26.40;;;;;17.51;62.43;101489.28;2069296;28;46045;-65
2023/05/23 04:09:02;;;;;;;;;24.25;21.75;;;;;17.51;62.36;101482.09;2069298;28;46506;-63
2023/05/23 04:10:03;;;;;;;;;29.25;26.00;;;;;17.50;62.41;101484.84;2068648;28;46842;-60
2023/05/23 04:11:03;;;;;;;;;26.20;24.00;;;;;17.49;62.61;101480.41;2071703;28;45060;-63
2023/05/23 04:12:04;;;;;;;;;26.25;25.75;;;;;17.48;62.25;101484.91;2071551;28;46388;-62
2023/05/23 04:13:05;;;;;;;;;24.20;24.20;;;;;17.46;62.72;101480.53;2073931;28;46009;-62
2023/05/23 04:14:06;;;;;;;;;22.25;22.25;;;;;17.44;62.64;101477.03;2074336;28;45513;-66
2023/05/23 04:15:07;;;;;;;;;24.40;23.60;;;;;17.43;62.84;101484.22;2070728;28;46588;-64
2023/05/23 04:16:08;;;;;;;;;24.40;23.00;;;;;17.41;62.68;101483.41;2072077;28;45878;-62
2023/05/23 04:17:08;;;;;;;;;24.00;23.25;;;;;17.42;62.82;101487.84;2077215;28;45648;-64
2023/05/23 04:18:08;;;;;;;;;31.25;28.00;;;;;17.42;62.91;101484.28;2075426;28;45269;-63
2023/05/23 04:19:09;;;;;;;;;30.50;28.25;;;;;17.41;62.74;101488.78;2079557;28;45255;-64
2023/05/23 04:20:10;;;;;;;;;29.50;27.25;;;;;17.41;62.67;101491.47;2072236;28;46584;-62
2023/05/23 04:21:10;;;;;;;;;29.00;27.25;;;;;17.40;62.89;101496.84;2072858;28;46708;-63
2023/05/23 04:22:10;;;;;;;;;26.25;25.25;;;;;17.39;62.70;101487.06;2076426;28;45559;-61
2023/05/23 04:23:11;;;;;;;;;24.50;23.75;;;;;17.39;62.79;101495.97;2075338;28;46043;-59
2023/05/23 04:24:11;;;;;;;;;26.00;26.00;;;;;17.37;62.94;101487.13;2073432;28;46278;-63
2023/05/23 04:25:12;;;;;;;;;22.75;21.25;;;;;17.39;63.06;101493.28;2075585;28;46799;-63
2023/05/23 04:26:12;;;;;;;;;19.60;19.60;;;;;17.39;62.74;101487.06;2072322;28;46209;-63
2023/05/23 04:27:13;;;;;;;;;23.00;22.75;;;;;17.38;62.92;101488.00;2079435;28;44981;-63
2023/05/23 04:28:16;;;;;;;;;25.75;23.50;;;;;17.36;62.95;101490.75;2084739;28;46039;-64
2023/05/23 04:29:16;;;;;;;;;28.00;24.00;;;;;17.36;62.62;101488.06;2071053;28;45633;-63
2023/05/23 04:30:17;;;;;;;;;26.00;24.25;;;;;17.36;62.95;101496.09;2075911;28;46146;-62
2023/05/23 04:31:17;;;;;;;;;26.00;25.00;;;;;17.35;62.94;101497.91;2082726;28;45382;-61
2023/05/23 04:32:21;;;;;;;;;22.75;20.75;;;;;17.35;62.63;101487.19;2080895;28;46115;-62
2023/05/23 04:33:22;;;;;;;;;22.60;22.00;;;;;17.35;62.83;101495.22;2069883;28;46840;-62
2023/05/23 04:34:22;;;;;;;;;27.25;23.50;;;;;17.34;62.71;101493.47;2072056;28;47765;-64
2023/05/23 04:35:22;;;;;;;;;23.25;22.25;;;;;17.36;63.12;101498.78;2070903;28;46301;-63
2023/05/23 04:36:24;;;;;;;;;25.00;22.50;;;;;17.36;62.75;101490.75;2077488;28;45850;-63
2023/05/23 04:37:24;;;;;;;;;22.00;20.60;;;;;17.38;62.76;101502.28;2072573;28;46181;-63
2023/05/23 04:38:26;;;;;;;;;24.00;21.25;;;;;17.39;62.70;101497.78;2076122;28;46478;-62
2023/05/23 04:39:28;;;;;;;;;21.80;20.60;;;;;17.42;62.99;101498.56;2076025;28;45603;-63
2023/05/23 04:40:30;;;;;;;;;22.20;20.40;;;;;17.43;62.83;101503.00;2072464;28;46597;-62